createdAt,value
2022-12-31T00:01:53.175Z,10.50
2022-12-31T00:04:20.446Z,10.50
2022-12-31T00:06:47.822Z,10.50
2022-12-31T00:09:14.750Z,10.40
2022-12-31T00:11:41.726Z,10.60
2022-12-31T00:14:08.711Z,10.60
2022-12-31T00:16:38.547Z,10.60
2022-12-31T00:19:07.671Z,10.60
2022-12-31T00:21:35.338Z,10.70
2022-12-31T00:24:03.508Z,10.70
2022-12-31T00:26:32.372Z,10.70
2022-12-31T00:29:00.718Z,10.80
2022-12-31T00:31:30.626Z,10.80
2022-12-31T00:33:58.379Z,10.80
2022-12-31T00:36:28.458Z,10.80
2022-12-31T00:38:57.627Z,10.80
2022-12-31T00:41:26.316Z,10.80
2022-12-31T00:43:53.458Z,10.90
2022-12-31T00:46:21.857Z,10.90
2022-12-31T00:48:48.877Z,10.90
2022-12-31T00:51:18.544Z,10.90
2022-12-31T00:53:45.927Z,10.90
2022-12-31T00:56:19.547Z,10.90
2022-12-31T00:58:46.844Z,10.90
2022-12-31T01:01:16.738Z,10.90
2022-12-31T01:03:44.195Z,10.90
2022-12-31T01:06:11.119Z,10.90
2022-12-31T01:08:38.275Z,11.00
2022-12-31T01:11:24.150Z,11.00
2022-12-31T01:13:55.590Z,11.00
2022-12-31T01:16:28.825Z,11.00
2022-12-31T01:19:02.091Z,10.90
2022-12-31T01:21:29.957Z,11.00
2022-12-31T01:23:58.229Z,11.00
2022-12-31T01:26:25.219Z,11.00
2022-12-31T01:28:52.196Z,11.00
2022-12-31T01:31:21.310Z,11.00
2022-12-31T01:33:48.864Z,11.10
2022-12-31T01:36:25.944Z,11.10
2022-12-31T01:38:54.766Z,11.20
2022-12-31T01:41:26.065Z,11.20
2022-12-31T01:43:55.309Z,11.20
2022-12-31T01:46:37.474Z,11.20
2022-12-31T01:49:26.725Z,11.30
2022-12-31T01:52:22.422Z,11.30
2022-12-31T01:55:01.610Z,11.30
2022-12-31T01:57:29.538Z,11.30
2022-12-31T01:59:57.092Z,11.30
2022-12-31T02:02:24.381Z,11.30
2022-12-31T02:04:55.682Z,11.30
2022-12-31T02:07:23.231Z,11.30
2022-12-31T02:09:50.271Z,11.30
2022-12-31T02:12:17.314Z,11.30
2022-12-31T02:14:50.892Z,11.40
2022-12-31T02:17:29.049Z,11.40
2022-12-31T02:20:11.258Z,11.40
2022-12-31T02:22:56.735Z,11.40
2022-12-31T02:25:47.908Z,11.40
2022-12-31T02:28:33.507Z,11.30
2022-12-31T02:31:17.159Z,11.30
2022-12-31T02:34:03.958Z,11.30
2022-12-31T02:36:36.220Z,11.30
2022-12-31T02:39:06.085Z,11.30
2022-12-31T02:41:51.788Z,11.30
2022-12-31T02:44:24.551Z,11.30
2022-12-31T02:47:14.871Z,11.30
2022-12-31T02:50:00.332Z,11.30
2022-12-31T02:52:48.988Z,11.30
2022-12-31T02:55:28.221Z,11.30
2022-12-31T02:58:02.341Z,11.30
2022-12-31T03:00:50.846Z,11.40
2022-12-31T03:03:20.346Z,11.50
2022-12-31T03:05:49.832Z,11.60
2022-12-31T03:08:24.857Z,11.60
2022-12-31T03:10:52.335Z,11.70
2022-12-31T03:13:19.540Z,11.80
2022-12-31T03:15:46.510Z,11.80
2022-12-31T03:18:16.413Z,11.70
2022-12-31T03:21:08.001Z,11.70
2022-12-31T03:23:39.090Z,11.60
2022-12-31T03:26:10.783Z,11.50
2022-12-31T03:28:39.559Z,11.50
2022-12-31T03:31:07.435Z,10.50
2022-12-31T03:33:39.932Z,11.40
2022-12-31T03:36:11.035Z,11.40
2022-12-31T03:38:38.235Z,11.40
2022-12-31T03:41:05.546Z,11.40
2022-12-31T03:43:32.799Z,11.30
2022-12-31T03:46:01.527Z,11.30
2022-12-31T03:48:28.674Z,11.30
2022-12-31T03:50:55.715Z,11.30
2022-12-31T03:53:22.675Z,11.30
2022-12-31T03:55:53.591Z,11.30
2022-12-31T03:58:21.613Z,11.30
2022-12-31T04:00:49.135Z,11.30
2022-12-31T04:03:16.187Z,11.30
2022-12-31T04:05:43.240Z,11.30
2022-12-31T04:08:10.154Z,10.50
2022-12-31T04:10:37.119Z,11.30
2022-12-31T04:13:04.754Z,11.30
2022-12-31T04:15:32.155Z,11.30
2022-12-31T04:17:59.096Z,11.30
2022-12-31T04:20:26.163Z,11.30
2022-12-31T04:22:53.070Z,11.30
2022-12-31T04:25:20.176Z,11.30
2022-12-31T04:27:47.081Z,11.30
2022-12-31T04:30:14.960Z,11.30
2022-12-31T04:32:42.150Z,11.30
2022-12-31T04:35:10.154Z,11.30
2022-12-31T04:37:37.320Z,11.30
2022-12-31T04:40:06.703Z,11.30
2022-12-31T04:42:34.947Z,11.30
2022-12-31T04:45:04.110Z,11.30
2022-12-31T04:47:33.214Z,11.30
2022-12-31T04:50:00.164Z,11.40
2022-12-31T04:52:27.058Z,11.30
2022-12-31T04:54:54.084Z,11.30
2022-12-31T04:57:21.117Z,11.40
2022-12-31T04:59:48.126Z,11.40
2022-12-31T05:02:15.230Z,11.40
2022-12-31T05:04:42.407Z,11.40
2022-12-31T05:07:09.309Z,11.40
2022-12-31T05:09:36.296Z,11.40
2022-12-31T05:12:03.352Z,11.40
2022-12-31T05:14:30.280Z,11.40
2022-12-31T05:16:58.339Z,11.40
2022-12-31T05:19:25.502Z,11.40
2022-12-31T05:22:10.827Z,11.40
2022-12-31T05:24:37.888Z,11.40
2022-12-31T05:27:04.794Z,11.40
2022-12-31T05:29:31.747Z,11.40
2022-12-31T05:31:58.658Z,11.40
2022-12-31T05:34:26.706Z,11.50
2022-12-31T05:36:53.799Z,11.50
2022-12-31T05:39:20.736Z,11.40
2022-12-31T05:41:47.720Z,11.40
2022-12-31T05:44:14.672Z,11.40
2022-12-31T05:46:41.597Z,11.40
2022-12-31T05:49:08.530Z,11.40
2022-12-31T05:51:35.604Z,11.40
2022-12-31T05:54:02.471Z,11.40
2022-12-31T05:56:29.382Z,11.40
2022-12-31T05:58:56.415Z,11.40
2022-12-31T06:01:23.481Z,11.40
2022-12-31T06:03:50.576Z,11.40
2022-12-31T06:06:17.587Z,11.40
2022-12-31T06:08:44.439Z,11.30
2022-12-31T06:11:11.363Z,11.30
2022-12-31T06:13:38.245Z,11.30
2022-12-31T06:16:09.695Z,11.30
2022-12-31T06:18:37.902Z,11.30
2022-12-31T06:21:05.125Z,11.30
2022-12-31T06:23:32.309Z,11.30
2022-12-31T06:26:04.162Z,11.30
2022-12-31T06:28:31.184Z,11.30
2022-12-31T06:31:02.229Z,11.30
2022-12-31T06:33:29.668Z,11.30
2022-12-31T06:35:57.893Z,11.30
2022-12-31T06:38:26.132Z,11.50
2022-12-31T06:40:53.424Z,10.80
2022-12-31T06:43:20.785Z,11.30
2022-12-31T06:48:15.894Z,11.30
2022-12-31T06:50:44.082Z,11.40
2022-12-31T06:53:12.900Z,11.30
2022-12-31T06:55:40.416Z,11.80
2022-12-31T06:58:13.488Z,11.30
2022-12-31T07:01:08.735Z,11.70
2022-12-31T07:04:30.870Z,11.30
2022-12-31T07:07:09.262Z,11.30
2022-12-31T07:10:02.807Z,11.30
2022-12-31T07:13:09.261Z,11.30
2022-12-31T07:15:42.394Z,11.30
2022-12-31T07:18:27.725Z,11.30
2022-12-31T07:20:58.196Z,11.40
2022-12-31T07:23:26.707Z,11.40
2022-12-31T07:26:06.094Z,11.40
2022-12-31T07:28:35.159Z,11.50
2022-12-31T07:31:28.906Z,11.40
2022-12-31T07:34:22.839Z,11.40
2022-12-31T07:37:04.806Z,11.40
2022-12-31T07:40:01.141Z,11.40
2022-12-31T07:42:58.517Z,11.40
2022-12-31T07:45:58.430Z,11.40
2022-12-31T07:48:27.762Z,11.30
2022-12-31T07:50:57.476Z,11.40
2022-12-31T07:53:25.267Z,11.40
2022-12-31T07:55:59.795Z,11.40
2022-12-31T07:59:01.383Z,11.40
2022-12-31T08:01:34.760Z,11.40
2022-12-31T08:04:25.040Z,11.40
2022-12-31T08:07:21.108Z,11.40
2022-12-31T08:10:11.301Z,11.50
2022-12-31T08:12:43.707Z,11.40
2022-12-31T08:15:15.455Z,11.40
2022-12-31T08:17:43.289Z,11.50
2022-12-31T08:20:15.971Z,11.50
2022-12-31T08:23:01.494Z,11.50
2022-12-31T08:25:57.263Z,11.60
2022-12-31T08:28:50.640Z,11.60
2022-12-31T08:31:21.475Z,11.60
2022-12-31T08:33:54.296Z,11.60
2022-12-31T08:36:28.687Z,11.70
2022-12-31T08:38:55.825Z,11.70
2022-12-31T08:41:39.033Z,11.70
2022-12-31T08:44:30.719Z,11.90
2022-12-31T08:47:21.633Z,11.90
2022-12-31T08:49:49.580Z,11.90
2022-12-31T08:52:23.206Z,12.00
2022-12-31T08:54:50.874Z,12.00
2022-12-31T08:57:24.193Z,12.00
2022-12-31T09:00:06.864Z,12.00
2022-12-31T09:02:48.270Z,12.00
2022-12-31T09:05:25.817Z,12.10
2022-12-31T09:08:37.535Z,12.10
2022-12-31T09:11:22.785Z,12.10
2022-12-31T09:14:43.605Z,12.10
2022-12-31T09:17:25.007Z,12.10
2022-12-31T09:19:53.366Z,12.10
2022-12-31T09:22:20.961Z,12.10
2022-12-31T09:24:48.421Z,12.20
2022-12-31T09:27:40.155Z,12.20
2022-12-31T09:30:16.241Z,12.30
2022-12-31T09:33:01.432Z,12.30
2022-12-31T09:35:56.803Z,12.40
2022-12-31T09:38:52.350Z,12.40
2022-12-31T09:41:34.445Z,12.40
2022-12-31T09:44:04.891Z,12.50
2022-12-31T09:47:13.655Z,12.50
2022-12-31T09:50:12.637Z,12.50
2022-12-31T09:52:55.450Z,12.50
2022-12-31T09:55:40.442Z,12.60
2022-12-31T09:58:24.609Z,12.60
2022-12-31T10:01:12.553Z,12.70
2022-12-31T10:04:10.103Z,12.70
2022-12-31T10:06:46.143Z,12.80
2022-12-31T10:09:31.139Z,12.80
2022-12-31T10:11:58.253Z,12.90
2022-12-31T10:14:39.910Z,12.90
2022-12-31T10:17:48.406Z,12.90
2022-12-31T10:20:24.720Z,13.00
2022-12-31T10:23:00.652Z,13.10
2022-12-31T10:26:00.640Z,13.10
2022-12-31T10:28:30.362Z,13.10
2022-12-31T10:31:17.796Z,13.20
2022-12-31T10:34:01.075Z,13.30
2022-12-31T10:36:44.887Z,13.30
2022-12-31T10:39:42.874Z,13.40
2022-12-31T10:42:15.759Z,13.50
2022-12-31T10:45:25.561Z,13.60
2022-12-31T10:48:11.131Z,13.70
2022-12-31T10:51:19.132Z,13.70
2022-12-31T10:54:35.702Z,13.80
2022-12-31T10:57:21.701Z,13.90
2022-12-31T11:00:16.048Z,14.00
2022-12-31T11:03:29.817Z,14.10
2022-12-31T11:06:44.669Z,14.10
2022-12-31T11:09:34.523Z,14.20
2022-12-31T11:12:41.981Z,14.20
2022-12-31T11:15:21.604Z,14.30
2022-12-31T11:18:14.924Z,14.40
2022-12-31T11:21:09.024Z,14.40
2022-12-31T11:23:39.785Z,14.40
2022-12-31T11:26:21.527Z,14.50
2022-12-31T11:29:03.721Z,14.60
2022-12-31T11:31:52.627Z,14.60
2022-12-31T11:34:37.935Z,14.70
2022-12-31T11:37:20.129Z,14.70
2022-12-31T11:40:09.651Z,14.70
2022-12-31T11:42:49.595Z,14.70
2022-12-31T11:45:29.119Z,14.70
2022-12-31T11:48:35.716Z,14.80
2022-12-31T11:51:12.685Z,14.80
2022-12-31T11:53:57.671Z,14.80
2022-12-31T11:56:30.042Z,14.70
2022-12-31T11:58:57.450Z,14.70
2022-12-31T12:01:36.283Z,14.70
2022-12-31T12:04:03.793Z,14.70
2022-12-31T12:06:32.986Z,14.70
2022-12-31T12:09:03.580Z,14.70
2022-12-31T12:11:35.125Z,14.70
2022-12-31T12:14:30.160Z,14.80
2022-12-31T12:17:04.322Z,14.80
2022-12-31T12:19:35.872Z,14.80
2022-12-31T12:22:14.706Z,14.80
2022-12-31T12:24:55.797Z,14.80
2022-12-31T12:27:31.887Z,14.80
2022-12-31T12:30:07.807Z,14.70
2022-12-31T12:32:35.795Z,14.70
2022-12-31T12:35:19.899Z,14.70
2022-12-31T12:37:46.785Z,14.70
2022-12-31T12:40:33.645Z,14.60
2022-12-31T12:43:02.270Z,14.60
2022-12-31T12:45:51.164Z,14.60
2022-12-31T12:48:30.060Z,14.60
2022-12-31T12:50:57.488Z,14.60
2022-12-31T12:53:27.421Z,14.60
2022-12-31T12:56:35.220Z,14.60
2022-12-31T12:59:17.972Z,14.60
2022-12-31T13:01:52.882Z,14.60
2022-12-31T13:04:37.062Z,14.60
2022-12-31T13:07:33.120Z,14.60
2022-12-31T13:10:22.456Z,14.60
2022-12-31T13:13:25.426Z,14.60
2022-12-31T13:16:31.558Z,14.60
2022-12-31T13:19:09.871Z,14.60
2022-12-31T13:21:41.824Z,14.60
2022-12-31T13:24:25.411Z,14.60
2022-12-31T13:27:14.412Z,14.60
2022-12-31T13:29:44.460Z,14.60
2022-12-31T13:32:18.201Z,14.60
2022-12-31T13:34:51.609Z,14.60
2022-12-31T13:37:36.746Z,14.50
2022-12-31T13:40:17.640Z,14.60
2022-12-31T13:43:11.336Z,14.50
2022-12-31T13:45:43.336Z,14.50
2022-12-31T13:48:19.144Z,14.40
2022-12-31T13:51:22.210Z,14.40
2022-12-31T13:54:11.404Z,14.40
2022-12-31T13:56:41.815Z,14.40
2022-12-31T13:59:26.580Z,14.30
2022-12-31T14:02:21.407Z,14.30
2022-12-31T14:04:58.587Z,14.30
2022-12-31T14:07:50.495Z,14.30
2022-12-31T14:10:28.361Z,14.30
2022-12-31T14:13:15.584Z,14.20
2022-12-31T14:16:15.834Z,14.20
2022-12-31T14:19:00.562Z,14.20
2022-12-31T14:21:53.022Z,14.10
2022-12-31T14:24:37.099Z,14.10
2022-12-31T14:27:11.057Z,14.00
2022-12-31T14:30:16.594Z,14.00
2022-12-31T14:33:02.405Z,14.00
2022-12-31T14:35:38.367Z,14.00
2022-12-31T14:38:19.151Z,13.90
2022-12-31T14:40:56.804Z,13.90
2022-12-31T14:43:51.216Z,13.80
2022-12-31T14:46:52.081Z,13.80
2022-12-31T14:49:45.437Z,13.80
2022-12-31T14:52:23.097Z,13.70
2022-12-31T14:55:19.628Z,13.60
2022-12-31T14:58:26.013Z,13.60
2022-12-31T15:00:40.209Z,13.50
2022-12-31T15:03:24.443Z,13.50
2022-12-31T15:05:58.606Z,13.50
2022-12-31T15:08:51.919Z,13.40
2022-12-31T15:11:25.522Z,13.30
2022-12-31T15:14:36.903Z,13.30
2022-12-31T15:17:23.499Z,13.30
2022-12-31T15:20:30.118Z,13.10
2022-12-31T15:22:57.393Z,13.10
2022-12-31T15:25:41.514Z,13.00
2022-12-31T15:28:26.688Z,13.00
2022-12-31T15:31:00.413Z,13.00
2022-12-31T15:33:52.769Z,12.90
2022-12-31T15:36:29.308Z,12.80
2022-12-31T15:39:11.491Z,12.80
2022-12-31T15:42:03.058Z,12.70
2022-12-31T15:44:51.141Z,12.70
2022-12-31T15:47:24.954Z,12.70
2022-12-31T15:49:53.835Z,12.60
2022-12-31T15:52:52.244Z,12.60
2022-12-31T15:55:27.449Z,12.60
2022-12-31T15:58:00.190Z,12.40
2022-12-31T16:00:43.248Z,12.40
2022-12-31T16:03:22.515Z,12.30
2022-12-31T16:05:49.901Z,12.30
2022-12-31T16:08:24.005Z,12.20
2022-12-31T16:10:51.233Z,12.20
2022-12-31T16:13:21.762Z,12.20
2022-12-31T16:16:21.327Z,12.10
2022-12-31T16:18:50.245Z,12.10
2022-12-31T16:21:37.872Z,12.00
2022-12-31T16:24:25.967Z,12.10
2022-12-31T16:26:56.458Z,12.00
2022-12-31T16:29:24.273Z,12.00
2022-12-31T16:31:55.922Z,12.00
2022-12-31T16:34:28.268Z,11.90
2022-12-31T16:36:56.321Z,11.90
2022-12-31T16:39:36.257Z,11.90
2022-12-31T16:42:21.757Z,11.80
2022-12-31T16:44:54.337Z,11.80
2022-12-31T16:47:27.832Z,11.80
2022-12-31T16:50:22.506Z,11.70
2022-12-31T16:52:52.199Z,11.70
2022-12-31T16:55:25.430Z,11.70
2022-12-31T16:58:00.274Z,11.70
2022-12-31T17:00:27.719Z,11.60
2022-12-31T17:03:24.569Z,11.60
2022-12-31T17:05:56.132Z,11.60
2022-12-31T17:09:02.369Z,11.60
2022-12-31T17:11:32.067Z,11.60
2022-12-31T17:14:06.634Z,11.50
2022-12-31T17:17:02.788Z,11.50
2022-12-31T17:19:36.740Z,11.50
2022-12-31T17:22:34.307Z,11.40
2022-12-31T17:25:20.116Z,11.40
2022-12-31T17:28:00.441Z,11.30
2022-12-31T17:30:31.476Z,11.30
2022-12-31T17:33:03.895Z,11.30
2022-12-31T17:35:42.997Z,11.30
2022-12-31T17:38:22.348Z,11.30
2022-12-31T17:41:05.635Z,11.30
2022-12-31T17:43:35.539Z,11.20
2022-12-31T17:46:09.070Z,11.20
2022-12-31T17:48:38.498Z,11.20
2022-12-31T17:51:06.078Z,11.20
2022-12-31T17:53:33.245Z,11.10
2022-12-31T17:56:04.791Z,11.10
2022-12-31T17:58:50.469Z,11.20
2022-12-31T18:01:21.325Z,11.20
2022-12-31T18:03:49.105Z,11.10
2022-12-31T18:06:17.356Z,11.10
2022-12-31T18:08:44.456Z,11.10
2022-12-31T18:11:21.232Z,11.10
2022-12-31T18:13:49.221Z,11.00
2022-12-31T18:16:17.559Z,11.00
2022-12-31T18:18:49.310Z,11.00
2022-12-31T18:21:19.717Z,11.00
2022-12-31T18:23:48.390Z,10.90
2022-12-31T18:26:20.554Z,10.90
2022-12-31T18:28:48.489Z,10.90
2022-12-31T18:31:17.958Z,10.90
2022-12-31T18:33:46.868Z,10.90
2022-12-31T18:36:15.829Z,10.90
2022-12-31T18:38:46.016Z,10.90
2022-12-31T18:41:19.664Z,10.90
2022-12-31T18:43:47.138Z,10.90
2022-12-31T18:46:16.628Z,10.90
2022-12-31T18:48:44.938Z,10.90
2022-12-31T18:51:15.893Z,10.90
2022-12-31T18:53:43.126Z,10.90
2022-12-31T18:56:19.315Z,10.80
2022-12-31T18:58:47.157Z,10.80
2022-12-31T19:01:28.148Z,10.80
2022-12-31T19:04:02.395Z,10.80
2022-12-31T19:06:30.587Z,10.80
2022-12-31T19:08:59.145Z,10.70
2022-12-31T19:11:28.074Z,10.70
2022-12-31T19:13:54.995Z,10.80
2022-12-31T19:16:22.112Z,10.70
2022-12-31T19:18:50.736Z,10.70
2022-12-31T19:21:20.160Z,10.70
2022-12-31T19:23:47.147Z,10.60
2022-12-31T19:26:20.039Z,10.60
2022-12-31T19:28:48.068Z,10.50
2022-12-31T19:31:16.128Z,10.50
2022-12-31T19:33:43.691Z,10.40
2022-12-31T19:36:20.804Z,10.40
2022-12-31T19:38:47.786Z,10.40
2022-12-31T19:41:20.238Z,10.30
2022-12-31T19:43:47.908Z,10.30
2022-12-31T19:46:17.098Z,10.30
2022-12-31T19:48:44.877Z,10.30
2022-12-31T19:51:16.648Z,10.30
2022-12-31T19:53:44.215Z,10.30
2022-12-31T19:56:17.279Z,10.20
2022-12-31T19:58:44.219Z,10.20
2022-12-31T20:01:22.841Z,10.20
2022-12-31T20:03:50.722Z,10.20
2022-12-31T20:06:19.151Z,10.20
2022-12-31T20:08:49.386Z,10.10
2022-12-31T20:11:22.626Z,10.10
2022-12-31T20:13:52.155Z,10.10
2022-12-31T20:16:23.040Z,10.00
2022-12-31T20:18:50.731Z,10.00
2022-12-31T20:21:20.703Z,10.00
2022-12-31T20:23:49.277Z,9.90
2022-12-31T20:26:16.865Z,9.80
2022-12-31T20:28:44.259Z,9.80
2022-12-31T20:31:16.972Z,9.80
2022-12-31T20:33:44.729Z,9.80
2022-12-31T20:36:14.208Z,9.80
2022-12-31T20:38:41.617Z,9.90
2022-12-31T20:41:14.189Z,10.00
2022-12-31T20:43:42.034Z,10.00
2022-12-31T20:46:23.366Z,10.10
2022-12-31T20:48:52.058Z,10.10
2022-12-31T20:51:20.222Z,10.20
2022-12-31T20:53:55.615Z,10.30
2022-12-31T20:56:23.846Z,10.30
2022-12-31T20:58:50.906Z,10.30
2022-12-31T21:01:18.606Z,10.40
2022-12-31T21:06:35.175Z,10.50
2022-12-31T21:09:04.875Z,10.50
2022-12-31T21:11:50.317Z,10.50
2022-12-31T21:14:17.453Z,10.50
2022-12-31T21:16:44.491Z,10.60
2022-12-31T21:19:13.692Z,10.50
2022-12-31T21:21:40.768Z,10.60
2022-12-31T21:24:08.000Z,10.60
2022-12-31T21:26:35.550Z,10.60
2022-12-31T21:29:02.452Z,10.60
2022-12-31T21:31:29.376Z,10.60
2022-12-31T21:33:56.289Z,10.60
2022-12-31T21:36:23.336Z,10.60
2022-12-31T21:38:50.269Z,10.60
2022-12-31T21:41:35.833Z,10.60
2022-12-31T21:44:03.212Z,10.60
2022-12-31T21:46:30.512Z,10.60
2022-12-31T21:48:58.918Z,10.60
2022-12-31T21:51:26.920Z,10.60
2022-12-31T21:53:54.007Z,10.60
2022-12-31T21:56:21.738Z,10.60
2022-12-31T21:59:14.053Z,10.60
2022-12-31T22:02:00.222Z,10.50
2022-12-31T22:05:01.036Z,10.50
2022-12-31T22:07:15.147Z,10.60
2022-12-31T22:09:42.039Z,10.50
2022-12-31T22:12:10.139Z,10.50
2022-12-31T22:14:37.120Z,10.60
2022-12-31T22:17:04.067Z,10.50
2022-12-31T22:19:30.895Z,10.60
2022-12-31T22:21:59.059Z,10.50
2022-12-31T22:24:25.944Z,10.60
2022-12-31T22:26:55.650Z,10.60
2022-12-31T22:29:23.629Z,10.60
2022-12-31T22:31:50.507Z,10.50
2022-12-31T22:34:18.131Z,10.60
2022-12-31T22:36:45.232Z,10.50
2022-12-31T22:39:43.276Z,10.60
2022-12-31T22:42:03.823Z,10.60
2022-12-31T22:44:30.683Z,10.50
2022-12-31T22:46:57.909Z,10.50
2022-12-31T22:49:25.764Z,10.50
2022-12-31T22:51:54.985Z,10.50
2022-12-31T22:54:24.443Z,10.50
2022-12-31T22:56:51.455Z,10.50
2022-12-31T22:59:18.437Z,10.50
2022-12-31T23:01:45.328Z,10.50
2022-12-31T23:04:12.349Z,10.50
2022-12-31T23:06:48.012Z,10.50
2022-12-31T23:09:36.021Z,10.50
2022-12-31T23:12:05.479Z,10.50
2022-12-31T23:14:52.785Z,10.50
2022-12-31T23:17:43.659Z,10.40
2022-12-31T23:20:32.964Z,10.50
2022-12-31T23:23:05.787Z,10.50
2022-12-31T23:25:34.459Z,10.50
2022-12-31T23:28:01.495Z,10.50
2022-12-31T23:30:28.770Z,10.50
2022-12-31T23:32:55.835Z,10.40
2022-12-31T23:35:22.953Z,10.50
2022-12-31T23:37:50.024Z,10.50
2022-12-31T23:40:21.141Z,10.50
2022-12-31T23:42:49.793Z,10.50
2022-12-31T23:45:16.765Z,10.50
2022-12-31T23:47:43.899Z,10.50
2022-12-31T23:50:10.868Z,10.50
2022-12-31T23:52:37.821Z,10.50
2022-12-31T23:55:05.978Z,10.60
2022-12-31T23:57:32.898Z,10.60
